Helton, KY (40840)

9:55 AM EDT on August 24, 2016 (GMT -0400)
Harlan | | Change Station

Elev 1552 ft 36.86 °N, 83.36 °W | Updated 20 minutes ago

Overcast
Overcast
68 °F
Feels Like 68 °F
N
0
Wind Variable Wind from North

Today
High -- | Low -- °F
--% Chance of Precip.
Yesterday
High -- | Low -- °F
Precip. -- in
Pressure 30.31 in
Visibility -9999.0 miles
Clouds Mostly Cloudy 4700 ft
Overcast 5500 ft
Dew Point 64 °F
Humidity 88%
Rainfall 0.00 in
Snow Depth Not available.
6:58 AM 8:12 PM
Waning Gibbous, 57% visible
METAR KI35 241335Z AUTO 00000KT BKN047 OVC055 20/18 A3031 RMK AO1
Pressure 30.31 in
Visibility -9999.0 miles
Clouds Mostly Cloudy 4700 ft
Overcast 5500 ft
Dew Point 64 °F
Humidity 88%
Rainfall 0.00 in
Snow Depth Not available.
6:58 AM 8:12 PM
Waning Gibbous, 57% visible
METAR KI35 241335Z AUTO 00000KT BKN047 OVC055 20/18 A3031 RMK AO1

10-Day Weather Forecast

Almanac

Astronomy

Aug. 24, 2016 Rise Set
Actual Time
Civil Twilight
Nautical Twilight
Astronomical Twilight
Moon
Length of Visible Light
Length of Day
Tomorrow will be .
, % of the Moon is Illuminated

Today's Extremes

State Highs State Lows

Community

WunderPhotos

Upload Photos

1,934,598 photos uploaded!

WunderBlog® & News

Nearby

Air Quality

  Air Quality AQ Index Pollutant
Not available.

Snow Depth

Station Depth Elevation

Earthquake Activity

City Distance Mag. Time & Date
Minimum magnitude displayed is 2.5.

Coastal Water Temperatures

Place Temperature

Stations

Nearby Weather Stations

Station Location Temp. Windchill Dew Point Humidity Wind Precip. Elev Updated Type
                   

Watches & Warnings

There are currently no watches in effect.